createdAt,value
2022-12-16T00:02:05.131Z,2.80
2022-12-16T00:04:33.259Z,2.90
2022-12-16T00:07:02.255Z,2.80
2022-12-16T00:09:30.229Z,2.80
2022-12-16T00:11:58.369Z,2.90
2022-12-16T00:14:29.267Z,2.70
2022-12-16T00:16:58.714Z,3.00
2022-12-16T00:19:26.880Z,2.90
2022-12-16T00:21:54.826Z,2.90
2022-12-16T00:24:22.912Z,2.90
2022-12-16T00:26:51.305Z,2.90
2022-12-16T00:29:20.058Z,2.90
2022-12-16T00:31:49.486Z,2.90
2022-12-16T00:34:18.248Z,2.90
2022-12-16T00:36:47.040Z,2.90
2022-12-16T00:39:15.790Z,2.80
2022-12-16T00:41:43.918Z,2.90
2022-12-16T00:44:12.075Z,2.90
2022-12-16T00:46:40.197Z,2.90
2022-12-16T00:49:09.743Z,2.90
2022-12-16T00:51:37.903Z,2.90
2022-12-16T00:54:05.932Z,2.80
2022-12-16T00:56:33.967Z,2.90
2022-12-16T00:59:01.982Z,2.80
2022-12-16T01:01:30.249Z,2.80
2022-12-16T01:03:58.822Z,2.80
2022-12-16T01:06:28.269Z,2.80
2022-12-16T01:08:56.792Z,2.80
2022-12-16T01:11:24.855Z,2.80
2022-12-16T01:13:55.022Z,2.80
2022-12-16T01:16:23.762Z,2.80
2022-12-16T01:18:52.117Z,2.80
2022-12-16T01:21:20.150Z,2.80
2022-12-16T01:23:50.480Z,2.70
2022-12-16T01:26:20.357Z,2.70
2022-12-16T01:28:49.546Z,2.70
2022-12-16T01:31:19.813Z,2.70
2022-12-16T01:33:48.262Z,2.70
2022-12-16T01:36:20.103Z,2.70
2022-12-16T01:38:49.581Z,2.60
2022-12-16T01:41:19.166Z,2.60
2022-12-16T01:43:47.943Z,2.60
2022-12-16T01:46:21.296Z,2.60
2022-12-16T01:49:00.266Z,2.50
2022-12-16T01:51:32.055Z,2.50
2022-12-16T01:54:05.844Z,2.50
2022-12-16T01:56:35.493Z,2.50
2022-12-16T01:59:04.156Z,2.50
2022-12-16T02:01:32.398Z,2.50
2022-12-16T02:04:03.939Z,2.40
2022-12-16T02:06:32.941Z,2.50
2022-12-16T02:09:08.843Z,2.50
2022-12-16T02:11:58.386Z,2.50
2022-12-16T02:14:55.599Z,2.60
2022-12-16T02:17:31.577Z,2.50
2022-12-16T02:20:32.478Z,2.50
2022-12-16T02:23:23.948Z,2.50
2022-12-16T02:26:27.570Z,2.40
2022-12-16T02:29:13.959Z,2.40
2022-12-16T02:31:53.829Z,2.40
2022-12-16T02:34:31.399Z,2.40
2022-12-16T02:37:10.679Z,2.30
2022-12-16T02:39:40.748Z,2.30
2022-12-16T02:42:16.394Z,2.30
2022-12-16T02:44:54.176Z,2.20
2022-12-16T02:47:23.639Z,2.20
2022-12-16T02:49:53.324Z,2.20
2022-12-16T02:52:24.632Z,2.40
2022-12-16T02:54:57.015Z,2.20
2022-12-16T02:57:49.608Z,2.00
2022-12-16T03:00:21.221Z,2.10
2022-12-16T03:02:59.544Z,2.10
2022-12-16T03:05:31.726Z,2.10
2022-12-16T03:08:03.746Z,2.00
2022-12-16T03:10:36.798Z,1.90
2022-12-16T03:13:07.672Z,2.20
2022-12-16T03:15:37.526Z,1.90
2022-12-16T03:18:10.900Z,1.90
2022-12-16T03:20:45.049Z,1.90
2022-12-16T03:23:18.519Z,1.90
2022-12-16T03:25:52.074Z,1.90
2022-12-16T03:28:35.352Z,2.00
2022-12-16T03:31:09.633Z,2.00
2022-12-16T03:33:45.539Z,2.00
2022-12-16T03:36:18.558Z,2.00
2022-12-16T03:38:48.256Z,2.00
2022-12-16T03:41:18.612Z,2.00
2022-12-16T03:43:46.824Z,2.00
2022-12-16T03:46:17.434Z,2.20
2022-12-16T03:48:51.862Z,2.20
2022-12-16T03:51:20.833Z,2.00
2022-12-16T03:53:49.013Z,2.00
2022-12-16T03:56:20.318Z,1.90
2022-12-16T03:58:48.457Z,2.00
2022-12-16T04:01:16.808Z,2.00
2022-12-16T04:03:45.053Z,2.00
2022-12-16T04:06:18.975Z,2.20
2022-12-16T04:08:47.547Z,2.00
2022-12-16T04:11:33.880Z,2.00
2022-12-16T04:14:19.718Z,2.00
2022-12-16T04:17:10.422Z,2.00
2022-12-16T04:19:57.199Z,1.90
2022-12-16T04:22:48.291Z,1.90
2022-12-16T04:25:19.769Z,1.80
2022-12-16T04:27:53.855Z,1.80
2022-12-16T04:30:23.117Z,1.90
2022-12-16T04:33:12.230Z,1.80
2022-12-16T04:35:58.005Z,1.80
2022-12-16T04:38:45.300Z,1.70
2022-12-16T04:41:33.799Z,1.70
2022-12-16T04:44:19.565Z,1.70
2022-12-16T04:47:05.200Z,1.60
2022-12-16T04:49:51.170Z,1.60
2022-12-16T04:52:37.089Z,1.50
2022-12-16T04:55:25.972Z,1.50
2022-12-16T04:58:12.785Z,1.40
2022-12-16T05:00:59.596Z,1.40
2022-12-16T05:03:47.408Z,1.40
2022-12-16T05:06:33.732Z,1.30
2022-12-16T05:09:19.656Z,1.20
2022-12-16T05:12:06.923Z,1.30
2022-12-16T05:14:52.833Z,1.20
2022-12-16T05:17:38.989Z,1.00
2022-12-16T05:20:25.989Z,1.20
2022-12-16T05:23:14.438Z,1.00
2022-12-16T05:26:00.794Z,0.90
2022-12-16T05:28:47.939Z,0.90
2022-12-16T05:31:35.783Z,0.70
2022-12-16T05:34:21.782Z,0.70
2022-12-16T05:37:07.322Z,0.70
2022-12-16T05:39:52.655Z,0.70
2022-12-16T05:42:38.075Z,0.70
2022-12-16T05:45:25.684Z,0.70
2022-12-16T05:48:10.976Z,0.70
2022-12-16T05:50:56.573Z,0.80
2022-12-16T05:53:42.091Z,0.80
2022-12-16T05:56:27.785Z,0.80
2022-12-16T05:59:12.999Z,0.80
2022-12-16T06:01:59.791Z,0.80
2022-12-16T06:04:45.506Z,0.70
2022-12-16T06:07:32.005Z,0.70
2022-12-16T06:10:18.337Z,0.80
2022-12-16T06:13:20.143Z,0.70
2022-12-16T06:16:08.852Z,0.80
2022-12-16T06:18:58.749Z,0.70
2022-12-16T06:21:45.120Z,0.90
2022-12-16T06:24:28.711Z,0.70
2022-12-16T06:27:14.899Z,0.70
2022-12-16T06:30:00.690Z,0.70
2022-12-16T06:32:49.638Z,0.70
2022-12-16T06:35:38.551Z,0.60
2022-12-16T06:38:24.341Z,0.70
2022-12-16T06:41:11.804Z,0.60
2022-12-16T06:43:57.499Z,0.60
2022-12-16T06:46:39.641Z,0.60
2022-12-16T06:49:25.364Z,0.60
2022-12-16T06:52:12.036Z,0.70
2022-12-16T06:54:57.248Z,0.70
2022-12-16T06:57:42.144Z,0.70
2022-12-16T07:00:28.959Z,0.70
2022-12-16T07:03:14.287Z,0.70
2022-12-16T07:05:59.638Z,0.70
2022-12-16T07:08:46.335Z,0.70
2022-12-16T07:11:31.865Z,0.70
2022-12-16T07:14:17.376Z,0.70
2022-12-16T07:17:16.748Z,0.80
2022-12-16T07:20:02.889Z,0.80
2022-12-16T07:23:08.359Z,0.90
2022-12-16T07:25:58.734Z,0.80
2022-12-16T07:28:44.602Z,0.80
2022-12-16T07:31:30.009Z,0.80
2022-12-16T07:34:15.809Z,0.90
2022-12-16T07:37:01.242Z,0.90
2022-12-16T07:39:51.341Z,1.00
2022-12-16T07:42:42.258Z,1.00
2022-12-16T07:45:28.840Z,1.00
2022-12-16T07:48:14.474Z,1.00
2022-12-16T07:51:00.723Z,1.10
2022-12-16T07:53:43.055Z,1.10
2022-12-16T07:56:28.940Z,1.10
2022-12-16T07:59:16.257Z,1.10
2022-12-16T08:02:02.940Z,1.10
2022-12-16T08:04:49.090Z,1.10
2022-12-16T08:07:34.443Z,1.10
2022-12-16T08:10:20.301Z,1.10
2022-12-16T08:13:05.819Z,1.10
2022-12-16T08:15:52.649Z,1.10
2022-12-16T08:18:38.242Z,1.20
2022-12-16T08:21:25.486Z,1.30
2022-12-16T08:24:11.206Z,1.20
2022-12-16T08:26:56.936Z,1.20
2022-12-16T08:29:44.702Z,1.20
2022-12-16T08:32:32.991Z,1.20
2022-12-16T08:35:33.153Z,1.30
2022-12-16T08:38:18.777Z,1.10
2022-12-16T08:41:04.622Z,1.10
2022-12-16T08:43:50.995Z,1.10
2022-12-16T08:46:37.045Z,1.10
2022-12-16T08:49:24.443Z,1.00
2022-12-16T08:52:09.688Z,1.10
2022-12-16T08:54:55.201Z,1.10
2022-12-16T08:57:41.034Z,1.10
2022-12-16T09:00:28.461Z,1.20
2022-12-16T09:03:17.884Z,1.20
2022-12-16T09:06:05.344Z,1.20
2022-12-16T09:09:02.877Z,1.20
2022-12-16T09:11:48.346Z,1.20
2022-12-16T09:14:33.065Z,1.30
2022-12-16T09:17:18.643Z,1.30
2022-12-16T09:20:04.326Z,1.30
2022-12-16T09:22:51.463Z,1.40
2022-12-16T09:25:37.113Z,1.40
2022-12-16T09:28:22.676Z,1.40
2022-12-16T09:31:08.090Z,1.50
2022-12-16T09:33:54.224Z,1.50
2022-12-16T09:36:39.740Z,1.60
2022-12-16T09:39:27.022Z,1.60
2022-12-16T09:42:20.285Z,1.70
2022-12-16T09:45:15.887Z,1.70
2022-12-16T09:48:13.090Z,1.80
2022-12-16T09:51:02.540Z,1.80
2022-12-16T09:53:53.321Z,1.80
2022-12-16T09:56:46.751Z,1.90
2022-12-16T09:59:35.541Z,1.90
2022-12-16T10:02:17.688Z,2.00
2022-12-16T10:05:05.515Z,2.00
2022-12-16T10:07:54.971Z,2.00
2022-12-16T10:10:49.819Z,2.10
2022-12-16T10:13:46.394Z,2.10
2022-12-16T10:16:40.805Z,2.20
2022-12-16T10:19:35.897Z,2.20
2022-12-16T10:22:29.926Z,2.20
2022-12-16T10:25:25.182Z,2.30
2022-12-16T10:28:19.374Z,2.30
2022-12-16T10:31:08.608Z,2.30
2022-12-16T10:33:56.848Z,2.40
2022-12-16T10:36:43.694Z,2.40
2022-12-16T10:39:45.840Z,2.50
2022-12-16T10:42:41.608Z,2.60
2022-12-16T10:45:40.855Z,2.70
2022-12-16T10:48:30.853Z,2.80
2022-12-16T10:51:19.060Z,3.00
2022-12-16T10:54:08.702Z,3.10
2022-12-16T10:57:10.775Z,3.20
2022-12-16T11:00:00.293Z,3.30
2022-12-16T11:02:47.304Z,3.30
2022-12-16T11:05:50.620Z,3.40
2022-12-16T11:08:48.188Z,3.50
2022-12-16T11:11:41.379Z,3.50
2022-12-16T11:14:36.732Z,3.60
2022-12-16T11:17:37.485Z,3.90
2022-12-16T11:20:32.225Z,3.80
2022-12-16T11:23:43.674Z,3.80
2022-12-16T11:26:36.379Z,3.90
2022-12-16T11:29:34.243Z,3.90
2022-12-16T11:32:23.638Z,4.00
2022-12-16T11:35:13.069Z,4.00
2022-12-16T11:38:00.272Z,4.10
2022-12-16T11:40:48.956Z,4.10
2022-12-16T11:43:37.125Z,4.30
2022-12-16T11:46:27.679Z,4.20
2022-12-16T11:49:24.797Z,4.20
2022-12-16T11:52:35.797Z,4.20
2022-12-16T11:55:48.130Z,4.30
2022-12-16T11:58:52.189Z,4.30
2022-12-16T12:01:45.542Z,4.30
2022-12-16T12:04:32.218Z,4.40
2022-12-16T12:07:30.145Z,4.40
2022-12-16T12:10:29.038Z,4.40
2022-12-16T12:13:20.477Z,4.40
2022-12-16T12:16:16.044Z,4.50
2022-12-16T12:19:09.153Z,4.50
2022-12-16T12:22:02.610Z,4.50
2022-12-16T12:24:58.224Z,4.60
2022-12-16T12:27:51.147Z,4.60
2022-12-16T12:30:39.265Z,4.60
2022-12-16T12:33:40.471Z,4.60
2022-12-16T12:36:37.941Z,4.70
2022-12-16T12:39:37.157Z,4.70
2022-12-16T12:42:36.145Z,4.70
2022-12-16T12:45:43.969Z,4.90
2022-12-16T12:48:40.121Z,4.70
2022-12-16T12:51:33.271Z,4.70
2022-12-16T12:54:33.116Z,4.70
2022-12-16T12:57:23.303Z,4.70
2022-12-16T13:00:15.190Z,4.70
2022-12-16T13:03:06.976Z,4.80
2022-12-16T13:05:59.435Z,4.80
2022-12-16T13:09:14.211Z,4.80
2022-12-16T13:12:39.367Z,4.80
2022-12-16T13:15:26.496Z,4.80
2022-12-16T13:18:32.082Z,4.80
2022-12-16T13:21:19.472Z,4.80
2022-12-16T13:24:05.461Z,4.80
2022-12-16T13:26:53.157Z,4.80
2022-12-16T13:29:41.814Z,4.90
2022-12-16T13:32:37.261Z,4.80
2022-12-16T13:35:33.937Z,4.80
2022-12-16T13:38:23.000Z,4.90
2022-12-16T13:41:12.696Z,4.80
2022-12-16T13:44:11.364Z,4.90
2022-12-16T13:47:02.037Z,4.90
2022-12-16T13:50:03.591Z,4.90
2022-12-16T13:53:01.374Z,4.90
2022-12-16T13:55:51.029Z,4.90
2022-12-16T13:58:44.787Z,4.90
2022-12-16T14:01:33.537Z,5.00
2022-12-16T14:04:28.070Z,4.80
2022-12-16T14:07:22.847Z,4.90
2022-12-16T14:10:11.699Z,4.90
2022-12-16T14:13:10.618Z,5.10
2022-12-16T14:16:10.414Z,4.90
2022-12-16T14:19:04.361Z,4.90
2022-12-16T14:21:57.404Z,4.90
2022-12-16T14:24:45.456Z,5.00
2022-12-16T14:27:34.883Z,5.00
2022-12-16T14:30:35.644Z,4.90
2022-12-16T14:33:43.157Z,5.00
2022-12-16T14:36:40.388Z,5.00
2022-12-16T14:39:30.491Z,4.90
2022-12-16T14:42:16.379Z,4.90
2022-12-16T14:45:04.479Z,4.90
2022-12-16T14:47:51.211Z,4.80
2022-12-16T14:50:40.017Z,4.70
2022-12-16T14:53:33.243Z,4.70
2022-12-16T14:56:57.645Z,4.70
2022-12-16T14:59:43.174Z,4.70
2022-12-16T15:02:43.004Z,4.60
2022-12-16T15:05:30.976Z,4.60
2022-12-16T15:08:17.111Z,4.50
2022-12-16T15:11:02.813Z,4.50
2022-12-16T15:13:49.031Z,4.60
2022-12-16T15:16:38.340Z,4.40
2022-12-16T15:19:24.917Z,4.30
2022-12-16T15:22:21.216Z,4.30
2022-12-16T15:25:06.917Z,4.20
2022-12-16T15:27:56.612Z,4.10
2022-12-16T15:30:56.719Z,4.10
2022-12-16T15:33:44.013Z,4.00
2022-12-16T15:36:44.912Z,4.00
2022-12-16T15:39:59.687Z,3.90
2022-12-16T15:42:44.188Z,3.80
2022-12-16T15:45:43.637Z,3.90
2022-12-16T15:48:33.367Z,3.70
2022-12-16T15:51:20.017Z,3.60
2022-12-16T15:54:19.857Z,3.50
2022-12-16T15:57:07.624Z,3.40
2022-12-16T15:59:57.062Z,3.30
2022-12-16T16:02:51.078Z,3.20
2022-12-16T16:05:39.459Z,3.20
2022-12-16T16:08:25.872Z,3.10
2022-12-16T16:11:11.960Z,3.10
2022-12-16T16:14:06.141Z,3.10
2022-12-16T16:16:55.593Z,2.90
2022-12-16T16:19:49.109Z,2.80
2022-12-16T16:22:39.007Z,2.80
2022-12-16T16:25:27.092Z,2.60
2022-12-16T16:28:39.422Z,2.70
2022-12-16T16:31:28.397Z,2.60
2022-12-16T16:34:14.311Z,2.50
2022-12-16T16:36:59.872Z,2.60
2022-12-16T16:39:45.554Z,2.40
2022-12-16T16:42:30.847Z,2.30
2022-12-16T16:45:16.280Z,2.30
2022-12-16T16:48:04.007Z,2.20
2022-12-16T16:50:49.677Z,2.10
2022-12-16T16:53:35.284Z,2.10
2022-12-16T16:56:22.268Z,2.00
2022-12-16T16:59:07.831Z,2.00
2022-12-16T17:01:53.721Z,1.90
2022-12-16T17:04:40.844Z,1.80
2022-12-16T17:07:26.628Z,1.80
2022-12-16T17:10:12.003Z,1.70
2022-12-16T17:13:04.454Z,1.70
2022-12-16T17:15:53.231Z,1.90
2022-12-16T17:18:44.666Z,1.60
2022-12-16T17:21:32.932Z,1.60
2022-12-16T17:24:18.628Z,1.50
2022-12-16T17:27:04.416Z,1.50
2022-12-16T17:29:49.884Z,1.50
2022-12-16T17:32:46.558Z,1.40
2022-12-16T17:35:31.886Z,1.40
2022-12-16T17:38:19.291Z,1.40
2022-12-16T17:41:10.137Z,1.30
2022-12-16T17:43:55.751Z,1.30
2022-12-16T17:46:41.115Z,1.20
2022-12-16T17:49:28.619Z,1.20
2022-12-16T17:52:13.895Z,1.20
2022-12-16T17:55:01.039Z,1.10
2022-12-16T17:57:46.553Z,1.10
2022-12-16T18:00:33.155Z,1.10
2022-12-16T18:03:19.221Z,1.00
2022-12-16T18:06:04.940Z,1.00
2022-12-16T18:08:46.817Z,1.00
2022-12-16T18:11:38.590Z,0.90
2022-12-16T18:14:24.901Z,0.80
2022-12-16T18:17:10.445Z,0.70
2022-12-16T18:19:59.317Z,0.60
2022-12-16T18:22:44.592Z,0.60
2022-12-16T18:25:32.516Z,0.60
2022-12-16T18:28:19.814Z,0.50
2022-12-16T18:31:05.270Z,0.50
2022-12-16T18:33:52.911Z,0.50
2022-12-16T18:36:38.207Z,0.50
2022-12-16T18:39:23.732Z,0.50
2022-12-16T18:42:09.431Z,0.40
2022-12-16T18:45:01.224Z,0.40
2022-12-16T18:47:47.473Z,0.40
2022-12-16T18:50:37.732Z,0.40
2022-12-16T18:53:25.082Z,0.30
2022-12-16T18:56:18.873Z,0.30
2022-12-16T18:59:04.198Z,0.20
2022-12-16T19:01:51.017Z,0.20
2022-12-16T19:04:36.417Z,0.20
2022-12-16T19:07:36.309Z,0.20
2022-12-16T19:10:21.697Z,0.20
2022-12-16T19:13:07.371Z,0.10
2022-12-16T19:15:52.931Z,0.10
2022-12-16T19:18:39.940Z,0.10
2022-12-16T19:21:25.493Z,0.00
2022-12-16T19:24:07.497Z,0.00
2022-12-16T19:26:53.240Z,0.00
2022-12-16T19:29:42.411Z,0.00
2022-12-16T19:32:27.979Z,-0.10
2022-12-16T19:35:15.571Z,0.00
2022-12-16T19:38:01.006Z,-0.10
2022-12-16T19:40:46.605Z,-0.20
2022-12-16T19:43:31.975Z,-0.30
2022-12-16T19:46:17.229Z,-0.10
2022-12-16T19:49:02.684Z,-0.30
2022-12-16T19:51:49.669Z,-0.30
2022-12-16T19:54:43.460Z,-0.30
2022-12-16T19:57:28.955Z,-0.30
2022-12-16T20:00:14.539Z,-0.30
2022-12-16T20:03:00.130Z,-0.40
2022-12-16T20:05:45.823Z,-0.40
2022-12-16T20:08:33.715Z,-0.50
2022-12-16T20:11:24.046Z,-0.50
2022-12-16T20:14:11.478Z,-0.50
2022-12-16T20:16:57.197Z,-0.50
2022-12-16T20:19:43.105Z,-0.50
2022-12-16T20:22:28.928Z,-0.60
2022-12-16T20:25:15.949Z,-0.60
2022-12-16T20:28:01.432Z,-0.60
2022-12-16T20:30:46.801Z,-0.70
2022-12-16T20:33:32.872Z,-0.70
2022-12-16T20:36:19.672Z,-0.70
2022-12-16T20:39:05.864Z,-0.80
2022-12-16T20:41:56.282Z,-0.80
2022-12-16T20:44:41.927Z,-0.80
2022-12-16T20:47:27.192Z,-0.80
2022-12-16T20:50:13.014Z,-0.90
2022-12-16T20:52:58.602Z,-0.90
2022-12-16T20:55:44.239Z,-0.90
2022-12-16T20:58:35.766Z,-0.90
2022-12-16T21:01:21.212Z,-0.90
2022-12-16T21:04:06.614Z,-0.90
2022-12-16T21:06:57.523Z,-1.00
2022-12-16T21:09:42.328Z,-1.00
2022-12-16T21:12:27.849Z,-1.00
2022-12-16T21:15:14.741Z,-1.00
2022-12-16T21:18:00.487Z,-1.00
2022-12-16T21:20:45.642Z,-1.00
2022-12-16T21:23:31.434Z,-1.00
2022-12-16T21:26:18.002Z,-1.10
2022-12-16T21:29:03.711Z,-1.10
2022-12-16T21:31:59.156Z,-1.10
2022-12-16T21:34:44.824Z,-1.10
2022-12-16T21:37:30.121Z,-1.20
2022-12-16T21:40:15.665Z,-1.20
2022-12-16T21:43:12.795Z,-1.20
2022-12-16T21:45:57.964Z,-1.20
2022-12-16T21:48:45.126Z,-1.20
2022-12-16T21:51:30.851Z,-1.20
2022-12-16T21:54:16.352Z,-1.20
2022-12-16T21:57:01.645Z,-1.20
2022-12-16T21:59:47.319Z,-1.20
2022-12-16T22:02:33.332Z,-1.30
2022-12-16T22:05:20.222Z,-1.20
2022-12-16T22:08:06.203Z,-1.30
2022-12-16T22:10:51.798Z,-1.30
2022-12-16T22:13:36.838Z,-1.20
2022-12-16T22:16:23.382Z,-1.30
2022-12-16T22:19:12.118Z,-1.30
2022-12-16T22:22:13.435Z,-1.30
2022-12-16T22:24:58.691Z,-1.40
2022-12-16T22:27:44.036Z,-1.40
2022-12-16T22:30:30.128Z,-1.50
2022-12-16T22:33:15.813Z,-1.40
2022-12-16T22:36:01.066Z,-1.40
2022-12-16T22:38:51.902Z,-1.40
2022-12-16T22:41:37.317Z,-1.40
2022-12-16T22:44:22.448Z,-1.40
2022-12-16T22:47:07.993Z,-1.50
2022-12-16T22:49:53.880Z,-1.50
2022-12-16T22:52:41.612Z,-1.50
2022-12-16T22:55:28.538Z,-1.40
2022-12-16T22:58:14.341Z,-1.40
2022-12-16T23:01:00.039Z,-1.30
2022-12-16T23:03:47.447Z,-1.50
2022-12-16T23:06:33.006Z,-1.40
2022-12-16T23:09:18.527Z,-1.50
2022-12-16T23:12:05.430Z,-1.50
2022-12-16T23:14:52.848Z,-1.50
2022-12-16T23:17:39.223Z,-1.50
2022-12-16T23:20:26.037Z,-1.60
2022-12-16T23:23:24.417Z,-1.60
2022-12-16T23:26:14.468Z,-1.60
2022-12-16T23:29:01.792Z,-1.60
2022-12-16T23:31:43.928Z,-1.50
2022-12-16T23:34:29.535Z,-1.70
2022-12-16T23:37:15.333Z,-1.70
2022-12-16T23:40:00.895Z,-1.70
2022-12-16T23:42:46.231Z,-1.80
2022-12-16T23:45:33.709Z,-1.80
2022-12-16T23:48:20.611Z,-1.80
2022-12-16T23:51:05.790Z,-1.80
2022-12-16T23:53:51.540Z,-1.90
2022-12-16T23:56:37.224Z,-1.80
2022-12-16T23:59:34.178Z,-1.90
